Time;durP1;ratioP1;P1;durP2;ratioP2;P2;SDS_P1;SDS_P2;PMS_P1;PMS_P2;Temp;Humidity;BMP_temperature;BMP_pressure;BME280_temperature;BME280_humidity;BME280_pressure;Samples;Min_cycle;Max_cycle;Signal;HPM_P1;HPM_P2
2023/06/05 00:01:22;;;;;;;4.45;2.22;;;;;;;14.17;43.32;101535.75;7392878;19;20022;-69
2023/06/05 00:03:54;;;;;;;4.18;2.63;;;;;;;14.12;43.40;101535.00;7394172;19;20026;-68
2023/06/05 00:06:22;;;;;;;5.50;2.50;;;;;;;14.06;43.30;101530.72;7391978;19;20018;-68
2023/06/05 00:08:51;;;;;;;6.65;2.15;;;;;;;14.01;43.61;101535.25;7394124;19;20476;-69
2023/06/05 00:11:19;;;;;;;4.55;2.10;;;;;;;13.97;43.55;101528.31;7392920;19;20026;-72
2023/06/05 00:13:48;;;;;;;9.63;2.33;;;;;;;13.90;43.80;101526.72;7391904;19;20112;-71
2023/06/05 00:16:17;;;;;;;4.55;2.00;;;;;;;13.84;44.10;101533.88;7394053;19;20015;-71
2023/06/05 00:18:45;;;;;;;5.15;2.25;;;;;;;13.78;44.31;101527.88;7393820;19;20023;-71
2023/06/05 00:21:19;;;;;;;5.80;2.58;;;;;;;13.73;44.51;101530.59;7392465;19;20477;-71
2023/06/05 00:23:48;;;;;;;4.70;2.42;;;;;;;13.67;44.66;101529.00;7394221;19;20015;-71
2023/06/05 00:26:16;;;;;;;6.47;2.60;;;;;;;13.63;44.86;101537.00;7393623;19;20019;-67
2023/06/05 00:28:45;;;;;;;5.63;2.85;;;;;;;13.58;45.04;101536.22;7393660;19;20018;-67
2023/06/05 00:31:14;;;;;;;5.93;3.00;;;;;;;13.50;45.36;101534.63;7395013;19;20022;-68
2023/06/05 00:33:42;;;;;;;5.03;3.08;;;;;;;13.42;45.64;101526.03;7398359;19;20014;-67
2023/06/05 00:36:11;;;;;;;5.60;2.63;;;;;;;13.36;45.86;101528.75;7400364;19;20019;-67
2023/06/05 00:38:42;;;;;;;8.48;3.53;;;;;;;13.30;46.01;101529.72;7400552;19;20027;-67
2023/06/05 00:41:10;;;;;;;9.23;3.13;;;;;;;13.24;46.02;101532.47;7399602;19;20014;-67
2023/06/05 00:43:40;;;;;;;8.20;3.13;;;;;;;13.17;46.29;101534.38;7400083;19;20010;-67
2023/06/05 00:46:08;;;;;;;5.00;2.70;;;;;;;13.08;46.60;101526.69;7398021;19;20014;-67
2023/06/05 00:48:37;;;;;;;6.13;2.75;;;;;;;13.01;46.91;101527.69;7400200;19;20025;-67
2023/06/05 00:51:07;;;;;;;7.15;2.85;;;;;;;12.93;47.03;101526.94;7398264;19;20010;-67
2023/06/05 00:53:37;;;;;;;3.55;2.40;;;;;;;12.86;47.14;101528.84;7398127;19;20014;-67
2023/06/05 00:56:08;;;;;;;4.60;2.78;;;;;;;12.77;47.15;101519.34;7398525;19;20066;-68
2023/06/05 00:58:36;;;;;;;4.22;2.13;;;;;;;12.73;47.31;101525.56;7400419;19;20022;-67
2023/06/05 01:01:06;;;;;;;2.97;1.95;;;;;;;12.68;47.45;101522.16;7398942;19;20026;-67
2023/06/05 01:03:36;;;;;;;4.88;2.58;;;;;;;12.63;47.33;101518.75;7397484;19;20014;-67
2023/06/05 01:06:05;;;;;;;4.22;2.20;;;;;;;12.55;47.43;101521.50;7399835;19;20019;-67
2023/06/05 01:08:38;;;;;;;4.57;1.83;;;;;;;12.46;47.41;101516.38;7397693;19;20355;-67
2023/06/05 01:11:16;;;;;;;5.07;2.30;;;;;;;12.41;47.36;101521.75;7397499;19;20019;-67
2023/06/05 01:13:51;;;;;;;5.45;1.83;;;;;;;12.30;47.42;101516.66;7398017;19;20025;-65
2023/06/05 01:16:30;;;;;;;2.97;1.65;;;;;;;12.26;47.46;101524.59;7399174;19;20439;-65
2023/06/05 01:19:02;;;;;;;5.10;2.00;;;;;;;12.22;47.32;101529.94;7399741;19;20040;-65
2023/06/05 01:21:30;;;;;;;3.78;2.15;;;;;;;12.16;47.37;101530.03;7398130;19;20022;-65
2023/06/05 01:24:02;;;;;;;4.50;2.33;;;;;;;12.14;47.40;101536.22;7398708;19;20022;-65
2023/06/05 01:26:52;;;;;;;4.43;1.98;;;;;;;12.10;47.67;101532.75;7399473;19;20032;-65
2023/06/05 01:29:28;;;;;;;6.35;2.00;;;;;;;12.06;47.96;101528.44;7399380;19;20014;-65
2023/06/05 01:32:02;;;;;;;3.33;2.08;;;;;;;12.00;48.11;101524.13;7396065;19;20355;-66
2023/06/05 01:34:31;;;;;;;3.00;2.20;;;;;;;11.96;47.78;101526.84;7399338;19;20014;-66
2023/06/05 01:37:00;;;;;;;4.00;1.83;;;;;;;11.89;47.87;101526.91;7398554;19;20025;-66
2023/06/05 01:39:32;;;;;;;4.38;2.00;;;;;;;11.86;48.04;101526.94;7398685;19;20054;-66
2023/06/05 01:42:01;;;;;;;5.20;1.83;;;;;;;11.81;48.02;101513.00;7394841;19;20035;-66
2023/06/05 01:44:31;;;;;;;4.75;2.30;;;;;;;11.76;48.19;101524.47;7399687;19;20035;-66
2023/06/05 01:47:00;;;;;;;2.70;1.92;;;;;;;11.71;48.23;101521.91;7400015;19;20485;-67
2023/06/05 01:49:28;;;;;;;5.20;2.75;;;;;;;11.68;48.17;101519.31;7398023;19;20050;-66
2023/06/05 01:51:57;;;;;;;7.95;2.47;;;;;;;11.63;48.29;101518.53;7396113;19;20023;-65
2023/06/05 01:54:26;;;;;;;3.47;1.95;;;;;;;11.58;48.52;101527.31;7398262;19;20029;-65
2023/06/05 01:56:58;;;;;;;4.47;2.50;;;;;;;11.54;48.84;101528.25;7398096;19;20014;-65
2023/06/05 01:59:26;;;;;;;3.92;2.00;;;;;;;11.48;48.82;101525.72;7397652;19;20500;-65
2023/06/05 02:01:54;;;;;;;5.65;2.30;;;;;;;11.43;48.95;101526.66;7396096;19;20085;-65
2023/06/05 02:04:24;;;;;;;3.92;2.03;;;;;;;11.38;49.17;101524.94;7397805;19;20032;-65
2023/06/05 02:06:52;;;;;;;3.53;2.28;;;;;;;11.37;49.27;101520.59;7397573;19;20018;-64
2023/06/05 02:09:21;;;;;;;3.50;2.20;;;;;;;11.37;49.30;101519.72;7397501;19;20019;-65
2023/06/05 02:11:53;;;;;;;3.97;2.20;;;;;;;11.34;49.42;101517.16;7395056;19;20422;-65
2023/06/05 02:14:24;;;;;;;4.53;2.35;;;;;;;11.30;49.65;101518.94;7395444;19;20400;-65
2023/06/05 02:16:53;;;;;;;3.03;2.13;;;;;;;11.24;49.73;101514.63;7395690;19;20022;-66
2023/06/05 02:19:22;;;;;;;2.67;1.90;;;;;;;11.21;49.79;101506.78;7397717;19;20046;-65
2023/06/05 02:21:51;;;;;;;4.07;2.40;;;;;;;11.17;49.88;101505.09;7395964;19;20035;-65
2023/06/05 02:24:20;;;;;;;4.10;2.30;;;;;;;11.20;49.90;101507.66;7395147;19;20018;-65
2023/06/05 02:26:48;;;;;;;4.80;2.13;;;;;;;11.21;49.90;101500.69;7395061;19;20027;-65
2023/06/05 02:29:17;;;;;;;4.80;2.38;;;;;;;11.18;49.98;101503.31;7394572;19;20497;-65
2023/06/05 02:31:48;;;;;;;4.07;1.98;;;;;;;11.14;50.11;101507.72;7395611;19;20019;-65
2023/06/05 02:34:16;;;;;;;5.03;3.03;;;;;;;11.11;50.17;101497.28;7395421;19;20091;-65
2023/06/05 02:36:52;;;;;;;4.20;2.72;;;;;;;11.09;50.41;101499.03;7396286;19;20015;-65
2023/06/05 02:39:20;;;;;;;4.97;2.67;;;;;;;11.07;50.34;101495.59;7396161;19;20023;-65
2023/06/05 02:41:55;;;;;;;3.72;2.17;;;;;;;11.03;50.36;101502.63;7395269;19;20053;-65
2023/06/05 02:44:24;;;;;;;4.70;2.30;;;;;;;11.01;50.49;101496.50;7394927;19;20074;-65
2023/06/05 02:46:55;;;;;;;2.83;2.38;;;;;;;10.99;50.77;101498.28;7394813;19;20022;-65
2023/06/05 02:49:23;;;;;;;2.78;2.25;;;;;;;10.97;50.83;101509.69;7396712;19;20035;-65
2023/06/05 02:51:52;;;;;;;8.38;2.53;;;;;;;10.95;50.84;101508.84;7394361;19;20083;-65
2023/06/05 02:54:20;;;;;;;4.72;2.35;;;;;;;10.95;50.95;101493.09;7394036;19;20035;-65
2023/06/05 02:56:49;;;;;;;4.10;2.28;;;;;;;10.96;51.01;101494.84;7396036;19;20097;-65
2023/06/05 02:59:18;;;;;;;4.55;2.95;;;;;;;10.97;51.10;101494.81;7395873;19;20018;-67
2023/06/05 03:01:46;;;;;;;4.20;2.30;;;;;;;10.97;51.28;101501.81;7394350;19;20384;-65
2023/06/05 03:04:20;;;;;;;2.88;2.20;;;;;;;10.95;51.42;101500.97;7395279;19;20504;-65
2023/06/05 03:06:49;;;;;;;;;;;;;;;10.92;51.36;101504.50;7396141;19;20006;-64
2023/06/05 03:09:17;;;;;;;4.80;2.30;;;;;;;10.87;51.41;101501.06;7395349;19;19939;-65
2023/06/05 03:11:46;;;;;;;4.32;2.72;;;;;;;10.83;51.70;101500.22;7392992;19;20505;-65
2023/06/05 03:14:14;;;;;;;9.25;4.68;;;;;;;10.84;51.97;101506.31;7394234;19;20027;-65
2023/06/05 03:16:45;;;;;;;7.80;4.78;;;;;;;10.84;52.09;101503.69;7395302;19;20039;-65
2023/06/05 03:19:16;;;;;;;5.20;2.90;;;;;;;10.85;52.21;101508.06;7394231;19;20015;-65
2023/06/05 03:21:45;;;;;;;3.10;2.75;;;;;;;10.83;52.32;101505.47;7394536;19;20019;-65
2023/06/05 03:24:16;;;;;;;6.13;2.67;;;;;;;10.81;52.36;101501.13;7395316;19;20046;-66
2023/06/05 03:26:45;;;;;;;2.97;2.42;;;;;;;10.79;52.47;101509.00;7393522;19;20042;-65
2023/06/05 03:29:14;;;;;;;4.60;2.33;;;;;;;10.79;52.46;101508.13;7394769;19;20019;-65
2023/06/05 03:31:43;;;;;;;12.95;2.83;;;;;;;10.78;52.68;101504.66;7393905;19;20073;-65
2023/06/05 03:34:12;;;;;;;5.30;2.53;;;;;;;10.77;52.72;101510.78;7392661;19;20494;-65
2023/06/05 03:36:43;;;;;;;5.68;2.42;;;;;;;10.74;52.88;101502.91;7394608;19;20018;-65
2023/06/05 03:39:11;;;;;;;6.43;2.63;;;;;;;10.72;52.96;101508.19;7394871;19;20047;-66
2023/06/05 03:41:40;;;;;;;5.82;2.25;;;;;;;10.72;52.96;101509.97;7393636;19;20022;-66
2023/06/05 03:44:08;;;;;;;6.25;3.38;;;;;;;10.71;53.17;101513.47;7392371;19;20068;-66
2023/06/05 03:46:37;;;;;;;5.18;2.85;;;;;;;10.69;53.20;101510.88;7392127;19;20023;-64
2023/06/05 03:49:08;;;;;;;3.95;2.40;;;;;;;10.67;53.28;101509.13;7394364;19;20018;-67
2023/06/05 03:51:37;;;;;;;3.83;2.85;;;;;;;10.65;53.40;101505.66;7393009;19;20039;-65
2023/06/05 03:54:08;;;;;;;3.03;2.25;;;;;;;10.64;53.59;101503.91;7392519;19;20019;-65
2023/06/05 03:56:42;;;;;;;4.18;2.55;;;;;;;10.63;53.56;101512.66;7391917;19;20019;-65
2023/06/05 03:59:18;;;;;;;;;;;;;;;10.64;53.46;101514.41;7395344;19;20042;-66
2023/06/05 04:01:47;;;;;;;4.03;2.40;;;;;;;10.64;53.26;101509.16;7392822;19;20251;-65
2023/06/05 04:04:15;;;;;;;4.38;2.25;;;;;;;10.63;53.49;101517.91;7393016;19;20014;-65
2023/06/05 04:06:44;;;;;;;3.25;2.20;;;;;;;10.63;53.70;101510.03;7398513;19;20007;-65
2023/06/05 04:09:15;;;;;;;3.00;2.10;;;;;;;10.65;53.73;101516.16;7400655;19;20010;-66
2023/06/05 04:11:45;;;;;;;2.70;2.40;;;;;;;10.68;53.77;101513.47;7398236;19;20481;-66
2023/06/05 04:14:14;;;;;;;4.93;2.67;;;;;;;10.71;53.78;101510.84;7399835;19;20025;-66
2023/06/05 04:16:43;;;;;;;2.85;2.30;;;;;;;10.74;54.00;101516.03;7400935;19;20033;-65
2023/06/05 04:19:13;;;;;;;4.82;2.47;;;;;;;10.77;53.99;101516.03;7400788;19;20019;-67
2023/06/05 04:21:42;;;;;;;6.55;2.80;;;;;;;10.80;54.03;101510.72;7397658;19;20090;-66
2023/06/05 04:24:11;;;;;;;7.13;3.13;;;;;;;10.82;54.01;101519.47;7400751;19;20018;-66
2023/06/05 04:26:43;;;;;;;5.55;3.03;;;;;;;10.87;54.12;101527.31;7400913;19;20014;-66
2023/06/05 04:29:13;;;;;;;5.45;2.83;;;;;;;10.89;54.20;101523.78;7401035;19;20029;-66
2023/06/05 04:31:43;;;;;;;3.92;2.67;;;;;;;10.94;54.12;101520.22;7397713;19;20110;-66
2023/06/05 04:34:12;;;;;;;3.63;2.40;;;;;;;10.98;54.19;101517.56;7397777;19;20082;-66
2023/06/05 04:36:40;;;;;;;6.57;2.53;;;;;;;11.02;54.28;101521.00;7399757;19;20507;-65
2023/06/05 04:39:14;;;;;;;8.90;2.70;;;;;;;11.05;54.30;101519.22;7397220;19;20039;-66
2023/06/05 04:41:46;;;;;;;5.22;2.53;;;;;;;11.09;54.37;101522.69;7398035;19;20025;-66
2023/06/05 04:44:16;;;;;;;6.65;2.70;;;;;;;11.13;54.34;101521.75;7399323;19;20106;-65
2023/06/05 04:46:45;;;;;;;4.50;2.15;;;;;;;11.18;54.36;101529.59;7400305;19;20036;-66
2023/06/05 04:49:13;;;;;;;2.97;2.20;;;;;;;11.22;54.27;101524.28;7397422;19;20426;-66
2023/06/05 04:51:43;;;;;;;6.28;2.53;;;;;;;11.25;54.17;101521.59;7397349;19;20081;-67
2023/06/05 04:54:12;;;;;;;4.80;2.38;;;;;;;11.29;54.26;101516.34;7397409;19;20014;-65
2023/06/05 04:56:40;;;;;;;3.55;2.53;;;;;;;11.35;54.18;101518.88;7399301;19;20423;-64
2023/06/05 04:59:12;;;;;;;4.55;3.00;;;;;;;11.41;54.24;101516.16;7396982;19;20085;-66
2023/06/05 05:01:40;;;;;;;4.80;2.40;;;;;;;11.46;54.29;101511.75;7397653;19;20019;-64
2023/06/05 05:04:09;;;;;;;5.85;2.67;;;;;;;11.53;54.25;101518.63;7398300;19;20392;-66
2023/06/05 05:06:38;;;;;;;4.30;2.25;;;;;;;11.58;54.33;101514.19;7398294;19;20086;-65
2023/06/05 05:09:08;;;;;;;5.18;2.42;;;;;;;11.65;54.34;101507.09;7399181;19;20037;-67
2023/06/05 05:11:37;;;;;;;3.95;2.47;;;;;;;11.73;54.17;101520.13;7396617;19;20019;-65
2023/06/05 05:14:05;;;;;;;4.47;2.20;;;;;;;11.80;54.21;101518.28;7397492;19;20073;-66
2023/06/05 05:16:36;;;;;;;3.78;2.60;;;;;;;11.86;54.16;101516.41;7395739;19;20031;-66
2023/06/05 05:19:05;;;;;;;4.82;2.58;;;;;;;11.94;54.10;101518.94;7398718;19;20070;-66
2023/06/05 05:21:33;;;;;;;7.70;2.42;;;;;;;12.02;54.03;101521.50;7395204;19;20026;-67
2023/06/05 05:24:03;;;;;;;4.90;2.17;;;;;;;12.10;54.01;101516.97;7395519;19;20026;-66
2023/06/05 05:26:31;;;;;;;5.00;1.80;;;;;;;12.19;53.74;101518.59;7395592;19;20086;-66
2023/06/05 05:29:00;;;;;;;4.97;2.30;;;;;;;12.27;53.78;101508.81;7394597;19;20078;-66
2023/06/05 05:31:29;;;;;;;5.53;2.08;;;;;;;12.35;53.74;101514.81;7394745;19;20085;-65
2023/06/05 05:34:00;;;;;;;4.68;2.08;;;;;;;12.45;53.71;101522.53;7397341;19;20018;-67
2023/06/05 05:36:29;;;;;;;4.57;2.00;;;;;;;12.52;53.51;101524.19;7398068;19;20513;-66
2023/06/05 05:38:58;;;;;;;6.25;2.42;;;;;;;12.61;53.59;101528.41;7395787;19;20006;-67
2023/06/05 05:41:26;;;;;;;3.28;2.20;;;;;;;12.68;53.61;101525.66;7396089;19;20100;-68
2023/06/05 05:43:55;;;;;;;6.13;2.67;;;;;;;12.76;53.46;101532.53;7395880;19;20035;-67
2023/06/05 05:46:23;;;;;;;5.15;2.40;;;;;;;12.84;53.25;101531.50;7397494;19;20086;-67
2023/06/05 05:48:52;;;;;;;4.75;2.40;;;;;;;12.92;53.34;101528.72;7397736;19;20031;-67
2023/06/05 05:51:23;;;;;;;3.92;2.30;;;;;;;13.00;53.09;101533.84;7395997;19;20365;-67
2023/06/05 05:53:52;;;;;;;5.88;2.35;;;;;;;13.08;53.10;101531.94;7397471;19;20018;-66
2023/06/05 05:56:20;;;;;;;7.60;2.42;;;;;;;13.16;52.91;101535.28;7397761;19;20019;-66
2023/06/05 05:58:49;;;;;;;3.40;2.30;;;;;;;13.25;52.81;101536.88;7395396;19;20451;-66
2023/06/05 06:01:18;;;;;;;4.20;2.33;;;;;;;13.35;52.54;101538.41;7395081;19;20022;-65
2023/06/05 06:03:47;;;;;;;4.40;2.70;;;;;;;13.45;52.47;101540.91;7397457;19;20078;-66
2023/06/05 06:06:16;;;;;;;14.65;2.78;;;;;;;13.55;52.23;101539.81;7394877;19;20014;-66
2023/06/05 06:08:48;;;;;;;5.10;2.63;;;;;;;13.66;52.22;101540.44;7397010;19;20070;-67
2023/06/05 06:11:17;;;;;;;8.02;2.88;;;;;;;13.78;51.73;101544.56;7395247;19;20035;-67
2023/06/05 06:13:46;;;;;;;3.45;2.65;;;;;;;13.90;51.59;101548.72;7396451;19;20021;-67
2023/06/05 06:16:14;;;;;;;3.00;2.53;;;;;;;14.01;51.42;101538.78;7396534;19;20097;-66
2023/06/05 06:18:43;;;;;;;4.47;2.28;;;;;;;14.14;51.22;101546.38;7395324;19;20014;-68
2023/06/05 06:21:11;;;;;;;6.38;2.45;;;;;;;14.24;50.84;101536.47;7395051;19;20042;-67
2023/06/05 06:23:40;;;;;;;5.63;2.22;;;;;;;14.33;50.57;101533.59;7396305;19;20070;-68
2023/06/05 06:26:11;;;;;;;4.20;2.30;;;;;;;14.43;50.63;101535.13;7396684;19;20082;-68
2023/06/05 06:28:40;;;;;;;6.97;2.60;;;;;;;14.53;50.59;101534.88;7393133;19;20026;-66
2023/06/05 06:31:08;;;;;;;5.15;2.55;;;;;;;14.61;50.70;101539.06;7393958;19;20022;-67
2023/06/05 06:33:37;;;;;;;4.60;2.08;;;;;;;14.71;51.00;101537.09;7395903;19;20584;-67
2023/06/05 06:36:06;;;;;;;25.77;5.40;;;;;;;14.81;50.66;101541.22;7396051;19;20484;-67
2023/06/05 06:38:34;;;;;;;8.75;2.72;;;;;;;14.92;50.55;101540.91;7396167;19;20098;-67
2023/06/05 06:41:03;;;;;;;7.90;2.90;;;;;;;15.03;50.26;101547.69;7395144;19;20081;-67
2023/06/05 06:43:34;;;;;;;6.88;3.17;;;;;;;15.14;50.33;101540.34;7396199;19;20041;-70
2023/06/05 06:46:03;;;;;;;4.43;2.55;;;;;;;15.22;50.16;101535.69;7396593;19;20019;-68
2023/06/05 06:48:32;;;;;;;7.20;3.38;;;;;;;15.35;49.60;101544.13;7395693;19;20022;-68
2023/06/05 06:51:03;;;;;;;5.82;2.55;;;;;;;15.46;49.10;101536.75;7393418;19;20023;-67
2023/06/05 06:53:32;;;;;;;6.85;2.00;;;;;;;15.60;49.11;101538.13;7396088;19;20025;-67
2023/06/05 06:56:00;;;;;;;7.38;2.50;;;;;;;15.71;48.51;101533.38;7393205;19;20031;-68
2023/06/05 06:58:28;;;;;;;6.95;2.22;;;;;;;15.85;48.38;101532.97;7395532;19;20032;-66
2023/06/05 07:01:00;;;;;;;7.55;2.60;;;;;;;15.99;47.74;101524.59;7394294;19;20098;-67
2023/06/05 07:03:28;;;;;;;3.83;2.50;;;;;;;16.12;47.51;101533.00;7394545;19;20028;-68
2023/06/05 07:05:56;;;;;;;3.67;2.00;;;;;;;16.24;47.01;101529.97;7393902;19;20433;-67
2023/06/05 07:08:25;;;;;;;5.05;2.83;;;;;;;16.36;46.36;101528.69;7393350;19;20078;-67
2023/06/05 07:10:55;;;;;;;2.95;2.08;;;;;;;16.50;46.15;101528.22;7394321;19;20032;-68
2023/06/05 07:13:24;;;;;;;7.30;3.08;;;;;;;16.63;45.76;101527.78;7394644;19;20022;-67
2023/06/05 07:15:54;;;;;;;4.57;1.88;;;;;;;16.73;45.47;101527.44;7393204;19;20014;-67
2023/06/05 07:18:25;;;;;;;6.63;2.47;;;;;;;16.87;44.74;101534.00;7393672;19;20043;-67
2023/06/05 07:20:54;;;;;;;6.30;1.98;;;;;;;17.00;44.77;101531.84;7394040;19;20374;-67
2023/06/05 07:23:23;;;;;;;7.40;2.45;;;;;;;17.13;44.67;101529.59;7394989;19;20079;-67
2023/06/05 07:25:52;;;;;;;6.88;4.40;;;;;;;17.25;44.19;101529.16;7395058;19;20018;-68
2023/06/05 07:28:20;;;;;;;3.80;2.63;;;;;;;17.38;43.60;101524.25;7394812;19;20022;-68
2023/06/05 07:30:50;;;;;;;4.50;2.35;;;;;;;17.50;43.26;101526.44;7394527;19;20029;-66
2023/06/05 07:33:18;;;;;;;3.28;2.22;;;;;;;17.62;42.77;101522.44;7392781;19;20027;-67
2023/06/05 07:35:50;;;;;;;8.63;2.33;;;;;;;17.76;42.30;101527.19;7392969;19;20041;-67
2023/06/05 07:38:18;;;;;;;6.57;2.35;;;;;;;17.92;41.84;101524.81;7395221;19;20011;-67
2023/06/05 07:40:47;;;;;;;2.97;2.40;;;;;;;18.04;41.60;101521.66;7395132;19;20015;-67
2023/06/05 07:43:17;;;;;;;5.43;2.17;;;;;;;18.16;41.07;101524.75;7401671;19;20421;-67
2023/06/05 07:45:46;;;;;;;5.55;2.55;;;;;;;18.28;40.93;101528.72;7398951;19;20030;-67
2023/06/05 07:48:14;;;;;;;5.60;2.05;;;;;;;18.39;40.38;101521.16;7398233;19;20031;-67
2023/06/05 07:50:43;;;;;;;5.45;2.90;;;;;;;18.51;39.60;101519.75;7397771;19;20018;-67
2023/06/05 07:53:22;;;;;;;6.03;2.33;;;;;;;18.62;39.28;101520.16;7401549;19;20018;-68
2023/06/05 07:55:51;;;;;;;4.70;2.40;;;;;;;18.75;39.02;101516.97;7399425;19;20015;-68
2023/06/05 07:58:20;;;;;;;4.18;2.35;;;;;;;18.86;38.91;101517.38;7401231;19;20496;-67
2023/06/05 08:00:50;;;;;;;3.50;2.10;;;;;;;18.98;38.14;101516.84;7400797;19;20024;-68
2023/06/05 08:03:20;;;;;;;5.18;2.10;;;;;;;19.10;38.00;101515.44;7398634;19;20018;-68
2023/06/05 08:05:49;;;;;;;2.88;2.00;;;;;;;19.22;38.01;101519.31;7401421;19;20019;-68
2023/06/05 08:08:20;;;;;;;3.38;1.83;;;;;;;19.32;37.32;101517.97;7398195;19;20014;-68
2023/06/05 08:10:49;;;;;;;5.32;1.88;;;;;;;19.44;37.10;101515.69;7400955;19;20074;-68
2023/06/05 08:13:18;;;;;;;5.20;1.55;;;;;;;19.53;36.25;101516.09;7398649;19;20123;-67
2023/06/05 08:15:47;;;;;;;3.63;1.80;;;;;;;19.62;35.96;101509.47;7399407;19;20026;-67
2023/06/05 08:18:17;;;;;;;2.03;1.77;;;;;;;19.70;35.95;101512.63;7400673;19;20505;-67
2023/06/05 08:20:46;;;;;;;3.72;1.73;;;;;;;19.81;35.75;101508.59;7397769;19;20484;-68
2023/06/05 08:23:16;;;;;;;4.55;1.95;;;;;;;19.88;35.00;101502.06;7398283;19;20091;-67
2023/06/05 08:25:48;;;;;;;5.85;1.75;;;;;;;19.98;34.48;101506.00;7397898;19;20493;-67
2023/06/05 08:28:16;;;;;;;3.90;1.80;;;;;;;20.06;34.76;101500.28;7400805;19;20029;-67
2023/06/05 08:30:45;;;;;;;1.73;1.40;;;;;;;20.16;34.15;101500.69;7400082;19;20022;-68
2023/06/05 08:33:14;;;;;;;2.70;1.50;;;;;;;20.28;33.70;101491.22;7400313;19;20018;-68
2023/06/05 08:35:43;;;;;;;3.67;1.40;;;;;;;20.39;33.54;101490.69;7398412;19;20025;-68
2023/06/05 08:38:12;;;;;;;4.60;1.98;;;;;;;20.47;32.56;101494.69;7399979;19;20074;-68
2023/06/05 08:40:50;;;;;;;2.78;1.50;;;;;;;20.57;32.14;101486.19;7399047;19;20421;-68
2023/06/05 08:43:21;;;;;;;4.38;1.40;;;;;;;20.69;31.51;101488.22;7400563;19;20007;-68
2023/06/05 08:45:53;;;;;;;4.55;1.60;;;;;;;20.79;31.36;101489.50;7399258;19;20015;-67
2023/06/05 08:48:23;;;;;;;2.78;1.30;;;;;;;20.89;30.69;101489.00;7400201;19;20078;-66
2023/06/05 08:50:52;;;;;;;3.50;1.30;;;;;;;20.96;30.82;101477.91;7398496;19;20035;-68
2023/06/05 08:53:23;;;;;;;2.15;1.13;;;;;;;21.04;30.49;101487.31;7401825;19;20027;-67
2023/06/05 08:55:56;;;;;;;2.85;1.40;;;;;;;21.12;29.88;101485.94;7397404;19;20485;-69
2023/06/05 08:58:27;;;;;;;2.80;1.20;;;;;;;21.20;29.61;101484.69;7400056;19;20078;-67
2023/06/05 09:00:57;;;;;;;3.75;2.05;;;;;;;21.25;29.59;101483.47;7399259;19;20081;-68
2023/06/05 09:03:25;;;;;;;2.70;2.13;;;;;;;21.31;29.25;101480.47;7399198;19;20014;-68
2023/06/05 09:05:55;;;;;;;6.22;1.70;;;;;;;21.39;29.36;101481.84;7396714;19;20019;-67
2023/06/05 09:08:32;;;;;;;9.25;4.55;;;;;;;21.47;28.42;101482.25;7396987;19;20078;-68
2023/06/05 09:11:22;;;;;;;3.70;2.05;;;;;;;21.54;28.19;101475.63;7397103;19;20022;-68
2023/06/05 09:13:54;;;;;;;2.90;1.63;;;;;;;21.63;28.46;101484.97;7396425;19;20074;-68
2023/06/05 09:16:23;;;;;;;9.27;3.70;;;;;;;21.70;28.90;101472.13;7395912;19;20031;-68
2023/06/05 09:18:56;;;;;;;2.50;1.92;;;;;;;21.78;28.99;101480.56;7396348;19;20018;-67
2023/06/05 09:21:28;;;;;;;2.70;1.65;;;;;;;21.87;28.44;101471.16;7398560;19;20023;-71
2023/06/05 09:24:13;;;;;;;7.03;2.13;;;;;;;21.94;28.19;101469.88;7398984;19;20081;-71
2023/06/05 09:26:56;;;;;;;3.10;1.48;;;;;;;22.01;27.65;101473.03;7399337;19;20024;-71
2023/06/05 09:29:29;;;;;;;7.32;1.48;;;;;;;22.06;27.91;101476.28;7398761;19;20104;-71
2023/06/05 09:31:59;;;;;;;4.18;1.33;;;;;;;22.13;28.02;101472.31;7395702;19;20022;-70
2023/06/05 09:34:30;;;;;;;3.83;1.40;;;;;;;22.20;27.60;101467.47;7397212;19;20038;-70
2023/06/05 09:37:00;;;;;;;4.18;1.70;;;;;;;22.24;27.22;101459.19;7396346;19;20028;-71
2023/06/05 09:39:30;;;;;;;2.10;1.35;;;;;;;22.30;27.07;101463.28;7398343;19;20091;-70
2023/06/05 09:42:01;;;;;;;4.05;1.38;;;;;;;22.36;27.09;101457.56;7396859;19;20085;-71
2023/06/05 09:44:32;;;;;;;3.67;2.20;;;;;;;22.42;27.01;101459.06;7397869;19;20090;-71
2023/06/05 09:47:05;;;;;;;3.85;2.20;;;;;;;22.49;27.27;101454.19;7402177;19;20026;-71
2023/06/05 09:49:34;;;;;;;4.05;1.50;;;;;;;22.52;27.31;101452.19;7398002;19;20500;-71
2023/06/05 09:52:04;;;;;;;5.72;1.60;;;;;;;22.58;26.78;101454.50;7395723;19;20066;-70
2023/06/05 09:54:33;;;;;;;6.93;1.92;;;;;;;22.64;27.12;101447.03;7398113;19;20015;-71
2023/06/05 09:57:03;;;;;;;3.78;2.17;;;;;;;22.68;27.04;101444.06;7395381;19;20022;-70
2023/06/05 09:59:35;;;;;;;2.58;1.55;;;;;;;22.73;26.64;101449.16;7397554;19;20418;-71
2023/06/05 10:02:07;;;;;;;4.13;1.70;;;;;;;22.77;26.71;101442.63;7396068;19;20074;-71
2023/06/05 10:04:41;;;;;;;3.65;1.42;;;;;;;22.80;26.43;101437.13;7393313;19;20035;-70
2023/06/05 10:07:10;;;;;;;2.78;1.50;;;;;;;22.83;26.69;101439.59;7397873;19;20021;-72
2023/06/05 10:09:39;;;;;;;2.65;1.05;;;;;;;22.83;26.23;101431.56;7397566;19;20372;-70
2023/06/05 10:12:10;;;;;;;4.13;1.60;;;;;;;22.86;26.23;101434.06;7395765;19;20022;-71
2023/06/05 10:14:45;;;;;;;4.80;1.50;;;;;;;22.92;26.33;101433.69;7397088;19;20014;-71
2023/06/05 10:17:15;;;;;;;9.32;1.50;;;;;;;23.00;26.53;101432.31;7397731;19;20063;-71
2023/06/05 10:19:44;;;;;;;2.75;1.25;;;;;;;23.07;25.98;101430.97;7397021;19;20119;-70
2023/06/05 10:22:13;;;;;;;3.85;1.70;;;;;;;23.12;25.89;101428.84;7394814;19;20074;-71
2023/06/05 10:24:47;;;;;;;2.00;1.25;;;;;;;23.14;25.64;101421.59;7395545;19;20018;-69
2023/06/05 10:27:45;;;;;;;3.20;1.48;;;;;;;23.16;25.15;101414.34;7394590;19;20485;-71
2023/06/05 10:30:55;;;;;;;2.25;1.60;;;;;;;23.19;25.32;101403.47;7396335;19;20085;-69
2023/06/05 10:33:39;;;;;;;1.70;1.23;;;;;;;23.26;25.54;101394.03;7394636;19;20038;-65
2023/06/05 10:36:24;;;;;;;4.80;1.13;;;;;;;23.35;25.83;101397.94;7394653;19;20011;-65
2023/06/05 10:38:53;;;;;;;5.40;1.48;;;;;;;23.47;25.84;101400.78;7395051;19;20041;-65
2023/06/05 10:41:22;;;;;;;3.58;1.70;;;;;;;23.56;25.91;101400.19;7394093;19;20370;-65
2023/06/05 10:43:55;;;;;;;2.58;1.10;;;;;;;23.66;25.31;101392.41;7396436;19;20078;-65
2023/06/05 10:46:37;;;;;;;2.97;1.67;;;;;;;23.74;25.23;101387.38;7394273;19;20485;-63
2023/06/05 10:49:11;;;;;;;3.58;1.25;;;;;;;23.82;24.77;101387.72;7395765;19;20078;-65
2023/06/05 10:51:42;;;;;;;3.83;1.60;;;;;;;23.90;25.51;101385.38;7393901;19;20078;-66
2023/06/05 10:54:15;;;;;;;2.65;1.60;;;;;;;24.00;25.27;101391.00;7394124;19;20014;-65
2023/06/05 10:56:59;;;;;;;3.87;1.40;;;;;;;24.11;24.51;101384.88;7395215;19;20017;-64
2023/06/05 10:59:29;;;;;;;4.78;1.80;;;;;;;24.18;24.31;101379.97;7395635;19;20489;-66
2023/06/05 11:02:28;;;;;;;2.47;1.42;;;;;;;24.21;23.73;101383.31;7394212;19;20022;-65
2023/06/05 11:05:13;;;;;;;2.67;1.52;;;;;;;24.31;23.82;101382.66;7394478;19;20020;-66
2023/06/05 11:07:45;;;;;;;1.85;1.38;;;;;;;24.44;23.80;101382.63;7395850;19;20022;-65
2023/06/05 11:10:20;;;;;;;2.40;1.55;;;;;;;24.55;24.24;101377.38;7393653;19;20074;-66
2023/06/05 11:13:01;;;;;;;3.00;1.60;;;;;;;24.68;23.80;101378.25;7392985;19;20018;-65
2023/06/05 11:15:44;;;;;;;4.05;1.77;;;;;;;24.80;23.20;101376.50;7392218;19;20086;-66
2023/06/05 11:18:39;;;;;;;4.78;2.92;;;;;;;24.92;23.31;101369.41;7396000;19;20018;-66
2023/06/05 11:21:07;;;;;;;2.53;1.80;;;;;;;25.02;23.22;101374.94;7394183;19;20506;-65
2023/06/05 11:23:36;;;;;;;4.45;1.63;;;;;;;25.11;23.54;101368.91;7392168;19;20518;-66
2023/06/05 11:26:37;;;;;;;3.65;2.00;;;;;;;25.24;23.05;101370.69;7392982;19;20019;-65
2023/06/05 11:29:14;;;;;;;2.78;1.55;;;;;;;25.36;22.46;101357.25;7393022;19;20090;-68
2023/06/05 11:31:43;;;;;;;2.58;1.92;;;;;;;25.51;22.93;101360.59;7393247;19;20021;-68
2023/06/05 11:34:17;;;;;;;4.93;2.13;;;;;;;25.69;22.50;101361.03;7394571;19;20018;-69
2023/06/05 11:36:45;;;;;;;3.42;1.40;;;;;;;25.84;22.29;101369.75;7393200;19;20074;-69
2023/06/05 11:39:14;;;;;;;2.33;1.42;;;;;;;25.91;21.89;101364.75;7392350;19;20433;-69
2023/06/05 11:41:50;;;;;;;3.40;1.60;;;;;;;25.98;21.41;101357.06;7392783;19;20018;-70
2023/06/05 11:44:32;;;;;;;2.15;1.50;;;;;;;26.08;21.58;101360.78;7394148;19;20023;-68